Time;durP1;ratioP1;P1;durP2;ratioP2;P2;SDS_P1;SDS_P2;PMS_P1;PMS_P2;Temp;Humidity;BMP_temperature;BMP_pressure;BME280_temperature;BME280_humidity;BME280_pressure;Samples;Min_cycle;Max_cycle;Signal;HPM_P1;HPM_P2
2022/08/15 00:01:36;;;;;;;5.07;4.00;;;22.10;99.90;;;;;;5017030;28;20297;-87
2022/08/15 00:04:06;;;;;;;5.13;4.38;;;22.10;99.90;;;;;;5017784;28;20170;-87
2022/08/15 00:06:40;;;;;;;5.82;4.47;;;22.10;99.90;;;;;;5017183;28;20299;-87
2022/08/15 00:09:13;;;;;;;6.65;4.50;;;22.00;99.90;;;;;;5017374;28;20170;-87
2022/08/15 00:11:43;;;;;;;6.43;4.65;;;22.10;99.90;;;;;;5016968;28;20253;-87
2022/08/15 00:14:13;;;;;;;6.53;4.47;;;22.00;99.90;;;;;;5017219;28;20193;-87
2022/08/15 00:16:42;;;;;;;5.20;4.43;;;21.90;99.90;;;;;;5017117;28;20178;-87
2022/08/15 00:19:15;;;;;;;8.05;4.30;;;21.80;99.90;;;;;;5017602;28;20269;-87
2022/08/15 00:21:44;;;;;;;4.78;4.28;;;21.80;99.90;;;;;;5016608;28;20226;-87
2022/08/15 00:24:11;;;;;;;6.93;4.00;;;21.70;99.90;;;;;;5016878;28;20181;-87
2022/08/15 00:26:37;;;;;;;7.38;4.43;;;21.60;99.90;;;;;;5016992;28;20257;-87
2022/08/15 00:29:06;;;;;;;4.70;4.22;;;21.60;99.90;;;;;;5016907;28;20179;-87
2022/08/15 00:31:32;;;;;;;6.05;4.22;;;21.50;99.90;;;;;;5016418;28;20202;-87
2022/08/15 00:33:59;;;;;;;5.88;4.28;;;21.60;99.90;;;;;;5034576;28;20178;-88
2022/08/15 00:36:26;;;;;;;6.63;4.30;;;21.50;99.90;;;;;;5039082;28;20189;-87
2022/08/15 00:38:52;;;;;;;5.53;4.47;;;21.50;99.90;;;;;;5022005;28;20197;-87
2022/08/15 00:44:09;;;;;;;6.57;4.88;;;21.50;99.90;;;;;;5037533;28;20182;-87
2022/08/15 00:46:36;;;;;;;6.82;4.22;;;21.50;99.90;;;;;;5016982;28;20206;-87
2022/08/15 00:49:02;;;;;;;5.85;4.10;;;21.50;99.90;;;;;;5016503;28;20182;-87
2022/08/15 00:51:40;;;;;;;5.07;4.25;;;21.50;99.90;;;;;;5016104;28;20226;-87
2022/08/15 00:54:15;;;;;;;5.88;4.65;;;21.50;99.90;;;;;;5033063;28;20201;-87
2022/08/15 00:56:49;;;;;;;4.75;4.18;;;21.50;99.90;;;;;;5015831;28;20182;-87
2022/08/15 00:59:19;;;;;;;7.30;4.28;;;21.50;99.90;;;;;;5016409;28;20178;-87
2022/08/15 01:01:46;;;;;;;4.45;4.05;;;21.50;99.90;;;;;;5015996;28;20214;-87
2022/08/15 01:04:15;;;;;;;5.93;4.38;;;21.50;99.90;;;;;;5016298;28;20174;-87
2022/08/15 01:06:43;;;;;;;5.05;4.32;;;21.50;99.90;;;;;;5016105;28;20265;-87
2022/08/15 01:09:10;;;;;;;5.45;4.45;;;21.60;99.90;;;;;;5032902;28;20187;-87
2022/08/15 01:11:42;;;;;;;7.35;4.35;;;21.60;99.90;;;;;;5016127;28;20301;-87
2022/08/15 01:14:08;;;;;;;6.25;4.90;;;21.60;99.90;;;;;;5032572;28;20239;-87
2022/08/15 01:16:38;;;;;;;5.65;3.83;;;21.60;99.90;;;;;;5015623;28;20182;-87
2022/08/15 01:19:13;;;;;;;5.10;4.05;;;21.50;99.90;;;;;;5016130;28;20185;-87
2022/08/15 01:22:03;;;;;;;5.75;4.38;;;21.50;99.90;;;;;;5032436;28;20213;-87
2022/08/15 01:24:45;;;;;;;4.85;3.92;;;21.40;99.90;;;;;;5032481;28;20293;-87
2022/08/15 01:27:12;;;;;;;4.72;3.75;;;21.40;99.90;;;;;;5032619;28;20269;-87
2022/08/15 01:29:38;;;;;;;4.38;3.55;;;21.50;99.90;;;;;;5016287;28;20187;-87
2022/08/15 01:32:04;;;;;;;6.70;4.00;;;21.50;99.90;;;;;;5015831;28;20206;-87
2022/08/15 01:34:32;;;;;;;4.40;3.70;;;21.60;99.90;;;;;;5015357;28;20175;-87
2022/08/15 01:36:59;;;;;;;8.15;3.92;;;21.60;99.90;;;;;;5015561;28;20248;-87
2022/08/15 01:39:33;;;;;;;5.40;4.05;;;21.60;99.90;;;;;;5015939;28;20193;-87
2022/08/15 01:42:05;;;;;;;5.35;3.85;;;21.70;99.90;;;;;;5031904;28;20241;-87
2022/08/15 01:44:40;;;;;;;7.13;4.03;;;21.70;99.90;;;;;;5015727;28;20173;-87
2022/08/15 01:47:25;;;;;;;4.47;3.90;;;21.70;99.90;;;;;;5032479;28;20220;-87
2022/08/15 01:50:03;;;;;;;3.83;3.47;;;21.80;99.90;;;;;;5015463;28;20174;-87
2022/08/15 01:52:34;;;;;;;4.25;3.85;;;21.80;99.90;;;;;;5015322;28;20213;-87
2022/08/15 01:55:05;;;;;;;4.00;3.60;;;21.90;99.90;;;;;;5016135;28;20270;-87
2022/08/15 01:57:32;;;;;;;4.72;3.83;;;21.80;99.90;;;;;;5015668;28;20178;-87
2022/08/15 01:59:59;;;;;;;5.25;4.05;;;21.70;99.90;;;;;;5015306;28;20209;-87
2022/08/15 02:02:27;;;;;;;4.82;3.53;;;21.70;99.90;;;;;;5015513;28;20217;-87
2022/08/15 02:05:05;;;;;;;4.95;3.78;;;21.70;99.90;;;;;;5015230;28;20171;-87
2022/08/15 02:07:31;;;;;;;4.80;3.80;;;21.60;99.90;;;;;;5015803;28;20280;-87
2022/08/15 02:09:57;;;;;;;4.55;3.65;;;21.40;99.90;;;;;;5014992;28;20205;-88
2022/08/15 02:12:32;;;;;;;6.97;3.88;;;21.40;99.90;;;;;;5016016;28;20202;-87
2022/08/15 02:15:01;;;;;;;5.38;3.97;;;21.40;99.90;;;;;;5031998;28;20179;-87
2022/08/15 02:17:27;;;;;;;4.85;4.18;;;21.20;99.90;;;;;;5015718;28;20265;-87
2022/08/15 02:19:57;;;;;;;4.50;3.90;;;21.10;99.90;;;;;;5031614;28;20266;-88
2022/08/15 02:22:24;;;;;;;8.10;4.60;;;21.00;99.90;;;;;;5015176;28;20210;-86
2022/08/15 02:24:51;;;;;;;4.20;3.72;;;20.90;99.90;;;;;;5014991;28;20190;-87
2022/08/15 02:27:17;;;;;;;5.45;3.97;;;20.70;99.90;;;;;;5015733;28;20204;-88
2022/08/15 02:29:43;;;;;;;7.10;4.63;;;20.60;99.90;;;;;;5016468;28;20174;-87
2022/08/15 02:32:17;;;;;;;6.75;4.63;;;20.60;99.90;;;;;;5014965;28;20206;-87
2022/08/15 02:34:46;;;;;;;4.65;4.10;;;20.50;99.90;;;;;;5015002;28;20179;-87
2022/08/15 02:37:18;;;;;;;8.05;4.25;;;20.40;99.90;;;;;;5015216;28;20240;-87
2022/08/15 02:39:47;;;;;;;4.82;4.38;;;20.40;99.90;;;;;;5031171;28;20186;-88
2022/08/15 02:42:15;;;;;;;6.93;4.57;;;20.30;99.90;;;;;;5031183;28;20580;-86
2022/08/15 02:44:42;;;;;;;4.93;4.43;;;20.30;99.90;;;;;;5014936;28;20297;-86
2022/08/15 02:47:13;;;;;;;5.47;4.38;;;20.30;99.90;;;;;;5015254;28;20183;-87
2022/08/15 02:49:41;;;;;;;6.10;4.72;;;20.30;99.90;;;;;;5014910;28;20196;-87
2022/08/15 02:52:08;;;;;;;4.75;4.20;;;20.30;99.90;;;;;;5014480;28;20206;-87
2022/08/15 02:54:35;;;;;;;4.50;3.97;;;20.30;99.90;;;;;;5015094;28;20178;-87
2022/08/15 02:57:01;;;;;;;5.32;3.90;;;20.30;99.90;;;;;;5014837;28;20262;-87
2022/08/15 02:59:28;;;;;;;6.18;4.55;;;20.30;99.90;;;;;;5014894;28;20182;-87
2022/08/15 03:01:56;;;;;;;5.47;4.47;;;20.20;99.90;;;;;;5014388;28;20297;-86
2022/08/15 03:04:23;;;;;;;6.68;4.82;;;20.20;99.90;;;;;;5014832;28;20178;-87
2022/08/15 03:06:53;;;;;;;5.00;4.45;;;20.10;99.90;;;;;;5014779;28;20190;-87
2022/08/15 03:09:21;;;;;;;4.97;4.40;;;20.00;99.90;;;;;;5032001;28;20175;-87
2022/08/15 03:11:55;;;;;;;4.72;4.28;;;20.00;99.90;;;;;;5015284;28;20202;-87
2022/08/15 03:14:22;;;;;;;4.45;4.03;;;20.00;99.90;;;;;;5015063;28;20190;-87
2022/08/15 03:16:49;;;;;;;6.68;4.35;;;20.00;99.90;;;;;;5015044;28;20183;-87
2022/08/15 03:19:25;;;;;;;6.75;4.40;;;20.00;99.90;;;;;;5017866;28;20171;-87
2022/08/15 03:21:51;;;;;;;6.13;4.68;;;20.00;99.90;;;;;;5019674;28;20211;-87
2022/08/15 03:24:19;;;;;;;6.68;4.65;;;20.10;99.90;;;;;;5019947;28;20175;-87
2022/08/15 03:26:46;;;;;;;4.28;3.88;;;20.10;99.90;;;;;;5018382;28;20185;-87
2022/08/15 03:29:16;;;;;;;4.80;4.05;;;20.10;99.90;;;;;;5018168;28;20185;-87
2022/08/15 03:31:47;;;;;;;5.30;4.20;;;20.20;99.90;;;;;;5018411;28;20198;-87
2022/08/15 03:34:20;;;;;;;4.43;4.00;;;20.20;99.90;;;;;;5034977;28;20265;-87
2022/08/15 03:36:46;;;;;;;4.53;4.13;;;20.30;99.90;;;;;;5018331;28;20186;-87
2022/08/15 03:39:14;;;;;;;5.03;4.05;;;20.30;99.90;;;;;;5018645;28;20183;-87
2022/08/15 03:41:41;;;;;;;4.65;4.25;;;20.40;99.90;;;;;;5017380;28;20272;-87
2022/08/15 03:44:08;;;;;;;4.70;4.03;;;20.40;99.90;;;;;;5017954;28;20183;-87
2022/08/15 03:46:34;;;;;;;4.20;3.80;;;20.40;99.90;;;;;;5017977;28;20285;-87
2022/08/15 03:49:00;;;;;;;4.68;3.88;;;20.40;99.90;;;;;;5017653;28;20238;-87
2022/08/15 03:51:31;;;;;;;4.65;4.10;;;20.40;99.90;;;;;;5017978;28;20729;-87
2022/08/15 03:54:03;;;;;;;5.40;4.07;;;20.40;99.90;;;;;;5018403;28;20232;-87
2022/08/15 03:56:33;;;;;;;4.65;3.83;;;20.40;99.90;;;;;;5034117;28;20213;-87
2022/08/15 03:59:01;;;;;;;3.53;3.22;;;20.40;99.90;;;;;;5017896;28;20179;-87
2022/08/15 04:01:30;;;;;;;4.72;3.65;;;20.40;99.90;;;;;;5016114;28;20307;-87
2022/08/15 04:03:57;;;;;;;4.78;3.90;;;20.40;99.90;;;;;;5017672;28;20178;-87
2022/08/15 04:06:31;;;;;;;5.00;3.90;;;20.40;99.90;;;;;;5017896;28;20179;-87
2022/08/15 04:09:00;;;;;;;3.70;3.40;;;20.40;99.90;;;;;;5017975;28;20174;-87
2022/08/15 04:11:30;;;;;;;4.70;3.92;;;20.40;99.90;;;;;;5016814;28;20198;-87
2022/08/15 04:13:57;;;;;;;5.90;4.00;;;20.30;99.90;;;;;;5017184;28;20179;-87
2022/08/15 04:16:25;;;;;;;5.40;4.10;;;20.30;99.90;;;;;;5017210;28;20204;-87
2022/08/15 04:18:52;;;;;;;5.80;4.38;;;20.30;99.90;;;;;;5017468;28;20648;-87
2022/08/15 04:21:18;;;;;;;3.92;3.55;;;20.30;99.90;;;;;;5016569;28;20290;-87
2022/08/15 04:23:46;;;;;;;5.07;3.92;;;20.30;99.90;;;;;;5033577;28;20662;-87
2022/08/15 04:26:14;;;;;;;5.68;3.10;;;20.30;99.90;;;;;;5016986;28;20179;-86
2022/08/15 04:28:40;;;;;;;4.53;3.35;;;20.20;99.90;;;;;;5016996;28;20178;-87
2022/08/15 04:31:09;;;;;;;3.80;3.50;;;20.20;99.90;;;;;;5015488;28;20185;-87
2022/08/15 04:33:36;;;;;;;3.72;3.38;;;20.20;99.90;;;;;;5016668;28;20202;-87
2022/08/15 04:36:10;;;;;;;4.68;3.22;;;20.30;99.90;;;;;;5033408;28;20705;-87
2022/08/15 04:38:42;;;;;;;4.07;3.65;;;20.20;99.90;;;;;;5016893;28;20170;-87
2022/08/15 04:41:09;;;;;;;4.03;3.60;;;20.10;99.90;;;;;;5016681;28;20202;-87
2022/08/15 04:43:38;;;;;;;3.30;3.00;;;20.10;99.90;;;;;;5016668;28;20171;-87
2022/08/15 04:46:07;;;;;;;3.63;3.33;;;20.10;99.90;;;;;;5017028;28;20163;-87
2022/08/15 04:48:33;;;;;;;4.40;3.28;;;20.00;99.90;;;;;;5016663;28;20220;-87
2022/08/15 04:51:01;;;;;;;3.38;3.08;;;19.90;99.90;;;;;;5016512;28;20278;-87
2022/08/15 04:53:29;;;;;;;5.30;3.05;;;19.70;99.90;;;;;;5033034;28;20229;-87
2022/08/15 04:55:57;;;;;;;4.85;3.13;;;19.70;99.90;;;;;;5016090;28;20182;-87
2022/08/15 04:58:24;;;;;;;3.88;3.05;;;19.60;99.90;;;;;;5032216;28;20202;-87
2022/08/15 05:01:02;;;;;;;4.55;3.10;;;19.70;99.90;;;;;;5015521;28;20261;-87
2022/08/15 05:03:49;;;;;;;4.63;3.15;;;19.60;99.90;;;;;;5019426;28;20210;-87
2022/08/15 05:06:18;;;;;;;4.28;3.00;;;19.50;99.90;;;;;;5018094;28;20237;-87
2022/08/15 05:08:44;;;;;;;3.30;3.00;;;19.50;99.90;;;;;;5017273;28;20179;-87
2022/08/15 05:11:18;;;;;;;3.33;2.97;;;19.50;99.90;;;;;;5017984;28;20171;-87
2022/08/15 05:13:49;;;;;;;4.10;3.15;;;19.50;99.90;;;;;;5017874;28;20174;-87
2022/08/15 05:16:33;;;;;;;4.28;3.03;;;19.50;99.90;;;;;;5019243;28;20265;-87
2022/08/15 05:19:01;;;;;;;4.40;3.15;;;19.50;99.90;;;;;;5016463;28;20197;-87
2022/08/15 05:21:29;;;;;;;3.63;2.92;;;19.50;99.90;;;;;;5032398;28;20213;-87
2022/08/15 05:23:55;;;;;;;3.45;3.08;;;19.50;99.90;;;;;;5015777;28;20183;-87
2022/08/15 05:26:28;;;;;;;4.78;3.10;;;19.50;99.90;;;;;;5016630;28;20206;-87
2022/08/15 05:28:54;;;;;;;3.75;3.40;;;19.50;99.90;;;;;;5032168;28;20178;-87
2022/08/15 05:31:20;;;;;;;3.33;3.03;;;19.50;99.90;;;;;;5015693;28;20183;-87
2022/08/15 05:33:51;;;;;;;3.65;3.35;;;19.50;99.90;;;;;;5016785;28;20221;-87
2022/08/15 05:36:18;;;;;;;3.75;3.45;;;19.50;99.90;;;;;;5032409;28;20175;-87
2022/08/15 05:38:56;;;;;;;18.90;12.85;;;19.60;99.90;;;;;;5031609;28;20252;-87
2022/08/15 05:41:33;;;;;;;6.10;4.38;;;19.60;99.90;;;;;;5031579;28;20219;-87
2022/08/15 05:44:05;;;;;;;4.60;3.30;;;19.70;99.90;;;;;;5032226;28;20166;-87
2022/08/15 05:46:40;;;;;;;4.70;3.10;;;19.60;99.90;;;;;;5031914;28;20162;-87
2022/08/15 05:49:21;;;;;;;4.65;3.13;;;19.80;99.90;;;;;;5031932;28;20182;-87
2022/08/15 05:52:15;;;;;;;3.80;3.42;;;19.80;99.90;;;;;;5030961;28;20205;-88
2022/08/15 05:54:44;;;;;;;3.55;3.25;;;19.80;99.90;;;;;;5021600;28;20222;-89
2022/08/15 05:57:19;;;;;;;6.57;3.50;;;19.90;99.90;;;;;;5041402;28;20178;-87
2022/08/15 05:59:53;;;;;;;3.95;3.40;;;19.90;99.90;;;;;;5015369;28;20301;-88
2022/08/15 06:02:44;;;;;;;4.20;3.22;;;20.00;99.90;;;;;;5014406;28;20214;-87
2022/08/15 06:05:43;;;;;;;3.92;3.45;;;20.00;99.90;;;;;;5031923;28;20227;-88
2022/08/15 06:08:14;;;;;;;3.70;3.13;;;20.10;99.90;;;;;;5015029;28;20209;-87
2022/08/15 06:10:49;;;;;;;4.97;3.28;;;20.20;99.90;;;;;;5015271;28;20201;-87
2022/08/15 06:13:37;;;;;;;3.50;3.10;;;20.40;99.90;;;;;;5015315;28;20222;-87
2022/08/15 06:16:28;;;;;;;3.10;2.72;;;20.40;99.90;;;;;;5015124;28;20205;-87
2022/08/15 06:18:56;;;;;;;4.47;2.63;;;20.50;99.90;;;;;;5031364;28;20182;-87
2022/08/15 06:21:48;;;;;;;3.75;2.88;;;20.70;99.90;;;;;;5014819;28;20211;-87
2022/08/15 06:24:31;;;;;;;4.80;3.00;;;20.80;99.90;;;;;;5015195;28;20170;-87
2022/08/15 06:27:39;;;;;;;3.25;2.58;;;21.00;99.90;;;;;;5015388;28;20217;-88
2022/08/15 06:30:12;;;;;;;2.83;2.60;;;21.10;99.90;;;;;;4996781;28;20186;-88
2022/08/15 06:32:48;;;;;;;4.60;2.80;;;21.20;99.90;;;;;;5015416;28;20233;-87
2022/08/15 06:35:22;;;;;;;4.43;2.95;;;21.40;99.90;;;;;;5031406;28;20183;-88
2022/08/15 06:38:03;;;;;;;4.93;2.78;;;21.50;99.90;;;;;;5014822;28;20179;-88
2022/08/15 06:40:47;;;;;;;8.50;2.90;;;21.60;99.90;;;;;;5032161;28;20669;-88
2022/08/15 06:43:13;;;;;;;4.88;2.72;;;21.90;99.90;;;;;;5031233;28;20708;-88
2022/08/15 06:46:01;;;;;;;3.92;2.30;;;21.90;99.90;;;;;;5031640;28;20182;-87
2022/08/15 06:48:34;;;;;;;3.28;2.30;;;21.70;99.90;;;;;;5014868;28;20174;-87
2022/08/15 06:51:04;;;;;;;4.50;2.80;;;21.70;99.90;;;;;;5014939;28;20179;-87
2022/08/15 06:53:44;;;;;;;5.32;2.47;;;21.50;99.90;;;;;;5015974;28;20190;-87
2022/08/15 06:56:22;;;;;;;2.72;2.33;;;21.40;99.90;;;;;;5018975;28;20173;-88
2022/08/15 06:59:05;;;;;;;3.10;2.40;;;21.50;99.90;;;;;;5035094;28;20204;-88
2022/08/15 07:02:08;;;;;;;4.82;2.80;;;21.50;99.90;;;;;;5018035;28;20309;-88
2022/08/15 07:04:53;;;;;;;5.70;2.85;;;21.70;99.90;;;;;;5034858;28;20186;-88
2022/08/15 07:07:50;;;;;;;2.45;2.20;;;21.80;99.90;;;;;;5035325;28;20190;-88
2022/08/15 07:10:46;;;;;;;3.08;2.42;;;21.90;99.90;;;;;;5018373;28;20638;-89
2022/08/15 07:13:18;;;;;;;3.80;2.30;;;22.00;99.90;;;;;;5018557;28;20202;-88
2022/08/15 07:15:58;;;;;;;2.78;2.38;;;22.10;99.90;;;;;;5018418;28;20171;-88
2022/08/15 07:18:41;;;;;;;2.40;2.13;;;22.20;99.90;;;;;;5018261;28;20627;-88
2022/08/15 07:21:22;;;;;;;2.75;2.35;;;22.10;99.90;;;;;;5019540;28;20202;-88
2022/08/15 07:24:11;;;;;;;5.00;2.50;;;22.00;99.90;;;;;;5018648;28;20207;-89
2022/08/15 07:27:05;;;;;;;3.05;2.20;;;22.20;99.90;;;;;;5018427;28;20194;-86
2022/08/15 07:29:37;;;;;;;3.65;2.28;;;22.30;99.90;;;;;;5018781;28;20166;-86
2022/08/15 07:32:14;;;;;;;3.08;2.20;;;22.50;99.90;;;;;;5034633;28;20230;-86
2022/08/15 07:34:59;;;;;;;2.65;2.33;;;22.70;99.90;;;;;;5034434;28;20178;-86
2022/08/15 07:37:29;;;;;;;3.33;2.38;;;22.70;99.90;;;;;;5018329;28;20173;-86
2022/08/15 07:40:04;;;;;;;2.45;2.25;;;22.80;99.90;;;;;;5018029;28;20182;-87
2022/08/15 07:42:37;;;;;;;3.58;2.28;;;22.80;99.90;;;;;;5017561;28;20217;-86
2022/08/15 07:45:19;;;;;;;3.15;2.33;;;22.90;99.90;;;;;;5034547;28;20175;-86
2022/08/15 07:47:58;;;;;;;3.90;2.53;;;23.00;99.90;;;;;;5019526;28;20193;-86
2022/08/15 07:50:39;;;;;;;4.07;1.90;;;22.90;99.90;;;;;;5027710;28;20194;-87
2022/08/15 07:53:17;;;;;;;4.43;2.10;;;23.10;99.90;;;;;;5030448;28;20209;-86
2022/08/15 07:56:00;;;;;;;2.45;2.08;;;23.30;99.90;;;;;;5021821;28;20182;-86
2022/08/15 07:58:26;;;;;;;2.08;1.88;;;23.30;99.90;;;;;;5034258;28;20469;-86
2022/08/15 08:01:20;;;;;;;2.10;1.90;;;23.50;99.90;;;;;;5017212;28;20225;-86
2022/08/15 08:03:55;;;;;;;3.40;1.98;;;23.50;99.90;;;;;;5034096;28;20170;-86
2022/08/15 08:06:51;;;;;;;2.40;2.05;;;23.50;99.90;;;;;;5017616;28;20297;-86
2022/08/15 08:09:33;;;;;;;2.22;2.03;;;23.50;99.90;;;;;;5012346;28;20268;-86
2022/08/15 08:12:11;;;;;;;3.70;1.88;;;23.40;99.90;;;;;;5017358;28;20198;-86
2022/08/15 08:15:26;;;;;;;2.13;1.75;;;23.50;99.90;;;;;;5033845;28;20175;-86
2022/08/15 08:18:31;;;;;;;2.80;2.28;;;23.60;99.90;;;;;;5009183;28;20253;-86
2022/08/15 08:21:11;;;;;;;2.70;2.17;;;23.70;99.90;;;;;;4976823;28;20246;-86
2022/08/15 08:23:53;;;;;;;2.28;2.00;;;23.70;99.90;;;;;;5019252;28;20182;-86
2022/08/15 08:26:40;;;;;;;2.30;2.10;;;23.80;99.90;;;;;;5017129;28;20190;-86
2022/08/15 08:29:22;;;;;;;3.70;1.85;;;23.90;99.90;;;;;;5033597;28;20631;-86
2022/08/15 08:32:17;;;;;;;2.75;1.85;;;24.10;99.90;;;;;;5016735;28;20198;-86
2022/08/15 08:34:55;;;;;;;1.90;1.80;;;24.20;99.90;;;;;;5033433;28;20167;-86
2022/08/15 08:37:37;;;;;;;2.00;1.60;;;24.30;99.90;;;;;;5032852;28;20634;-86
2022/08/15 08:43:08;;;;;;;1.92;1.75;;;24.80;99.90;;;;;;5033099;28;20214;-86
2022/08/15 08:46:09;;;;;;;2.25;1.63;;;24.90;99.90;;;;;;5016645;28;20175;-86
2022/08/15 08:49:06;;;;;;;2.42;1.80;;;25.10;99.90;;;;;;5011034;28;20186;-87
2022/08/15 08:51:34;;;;;;;1.70;1.60;;;25.30;99.90;;;;;;5025509;28;20217;-86
2022/08/15 08:54:05;;;;;;;2.15;1.95;;;25.20;99.90;;;;;;5033255;28;20190;-86
2022/08/15 08:56:40;;;;;;;1.70;1.60;;;25.40;99.90;;;;;;5032807;28;20232;-86
2022/08/15 08:59:16;;;;;;;2.08;1.90;;;25.70;99.90;;;;;;5016403;28;20182;-86
2022/08/15 09:01:53;;;;;;;2.25;2.03;;;25.80;99.20;;;;;;5015561;28;20221;-86
2022/08/15 09:04:42;;;;;;;2.00;1.80;;;25.70;99.80;;;;;;5016392;28;20305;-86
2022/08/15 09:07:13;;;;;;;1.77;1.67;;;25.90;99.30;;;;;;5016236;28;20242;-86
2022/08/15 09:09:43;;;;;;;2.58;1.75;;;26.10;99.30;;;;;;5032910;28;20178;-86
2022/08/15 09:15:06;;;;;;;1.90;1.80;;;26.10;98.50;;;;;;5032646;28;20187;-86
2022/08/15 09:17:36;;;;;;;1.80;1.70;;;26.20;97.90;;;;;;5015640;28;20181;-86
2022/08/15 09:20:09;;;;;;;2.60;1.70;;;26.30;97.60;;;;;;5032434;28;20221;-86
2022/08/15 09:22:35;;;;;;;1.70;1.60;;;26.40;98.00;;;;;;5016052;28;20218;-87
2022/08/15 09:25:01;;;;;;;2.22;1.73;;;26.60;97.80;;;;;;5015967;28;20198;-86
2022/08/15 09:27:39;;;;;;;1.90;1.80;;;26.70;96.60;;;;;;5016413;28;20183;-86
2022/08/15 09:30:08;;;;;;;4.15;1.85;;;26.70;96.50;;;;;;5016337;28;20200;-86
2022/08/15 09:32:44;;;;;;;2.17;1.95;;;26.60;96.10;;;;;;5015946;28;20233;-87
2022/08/15 09:35:44;;;;;;;1.67;1.58;;;26.60;95.40;;;;;;5032744;28;20196;-87
2022/08/15 09:38:42;;;;;;;2.17;1.98;;;26.70;96.00;;;;;;5032081;28;20186;-87
2022/08/15 09:41:26;;;;;;;2.63;2.05;;;26.70;94.90;;;;;;5032092;28;20202;-88
2022/08/15 09:44:00;;;;;;;1.90;1.70;;;26.70;95.50;;;;;;5032102;28;20167;-87
2022/08/15 09:46:46;;;;;;;2.83;2.47;;;26.80;95.30;;;;;;5032033;28;20175;-87
2022/08/15 09:49:40;;;;;;;2.97;1.90;;;27.00;95.10;;;;;;5031977;28;20170;-87
2022/08/15 09:52:37;;;;;;;2.35;1.92;;;27.30;94.70;;;;;;5015187;28;20260;-87
2022/08/15 09:55:20;;;;;;;2.00;1.88;;;27.60;94.90;;;;;;5031885;28;20174;-87
2022/08/15 09:57:50;;;;;;;2.13;1.63;;;27.80;93.90;;;;;;5015288;28;20162;-87
2022/08/15 10:00:19;;;;;;;2.53;2.20;;;27.90;94.20;;;;;;5015327;28;20167;-87
2022/08/15 10:02:51;;;;;;;3.10;1.80;;;28.10;93.50;;;;;;5015224;28;20221;-87
2022/08/15 10:05:44;;;;;;;2.25;1.67;;;28.20;93.20;;;;;;5015335;28;20195;-87
2022/08/15 10:08:13;;;;;;;3.17;2.05;;;28.30;92.80;;;;;;5015100;28;20208;-87
2022/08/15 10:10:54;;;;;;;2.38;2.15;;;28.30;92.20;;;;;;5014961;28;20175;-88
2022/08/15 10:13:45;;;;;;;2.40;1.85;;;28.10;92.60;;;;;;5015142;28;20203;-87
2022/08/15 10:16:40;;;;;;;2.40;1.98;;;27.80;92.70;;;;;;5014860;28;20181;-88
2022/08/15 10:19:29;;;;;;;3.22;2.20;;;28.00;92.60;;;;;;5011198;28;20244;-87
2022/08/15 10:22:00;;;;;;;4.25;2.00;;;28.10;92.20;;;;;;5014658;28;20214;-88
2022/08/15 10:24:28;;;;;;;4.00;2.40;;;28.20;92.00;;;;;;5014890;28;20187;-87
2022/08/15 10:27:22;;;;;;;4.38;2.25;;;28.30;92.80;;;;;;5014917;28;20175;-87
2022/08/15 10:29:52;;;;;;;2.90;2.47;;;28.00;91.90;;;;;;5012785;28;20206;-88
2022/08/15 10:32:30;;;;;;;2.75;2.10;;;27.90;91.60;;;;;;5031251;28;20209;-87
2022/08/15 10:35:11;;;;;;;2.97;2.20;;;27.90;92.00;;;;;;5031405;28;20661;-87
2022/08/15 10:37:53;;;;;;;2.35;2.10;;;27.90;91.80;;;;;;5015184;28;20200;-87
2022/08/15 10:40:36;;;;;;;2.58;2.38;;;27.80;92.20;;;;;;5014580;28;20257;-88
2022/08/15 10:43:14;;;;;;;2.53;1.90;;;27.80;92.10;;;;;;5014669;28;20613;-88
2022/08/15 10:45:54;;;;;;;3.58;2.30;;;28.10;92.70;;;;;;5031557;28;20185;-87
2022/08/15 10:48:20;;;;;;;2.50;2.30;;;27.90;91.20;;;;;;5014724;28;20179;-88
2022/08/15 10:51:46;;;;;;;2.60;2.40;;;28.00;91.60;;;;;;5031053;28;20178;-87
2022/08/15 10:54:28;;;;;;;2.78;2.58;;;27.80;91.10;;;;;;4935189;28;20196;-88
2022/08/15 10:56:55;;;;;;;2.35;2.17;;;28.00;91.00;;;;;;5007929;28;20194;-88
2022/08/15 10:59:42;;;;;;;2.47;2.28;;;28.10;91.20;;;;;;5030959;28;20575;-88
2022/08/15 11:02:21;;;;;;;2.50;2.30;;;28.50;90.40;;;;;;5014144;28;20210;-88
2022/08/15 11:04:47;;;;;;;4.07;2.70;;;28.80;90.00;;;;;;5031118;28;20159;-88
2022/08/15 11:07:27;;;;;;;2.63;2.40;;;29.10;89.60;;;;;;5014584;28;20183;-87
2022/08/15 11:09:56;;;;;;;3.42;2.40;;;29.20;89.90;;;;;;5031014;28;20592;-88
2022/08/15 11:12:23;;;;;;;3.17;2.88;;;29.40;89.90;;;;;;5014528;28;20206;-88
2022/08/15 11:14:59;;;;;;;3.13;2.92;;;29.60;87.20;;;;;;5014380;28;20218;-88
2022/08/15 11:17:30;;;;;;;3.63;2.55;;;29.70;88.20;;;;;;5014482;28;20182;-88
2022/08/15 11:20:05;;;;;;;3.17;2.88;;;30.00;87.70;;;;;;5031138;28;20175;-90
2022/08/15 11:22:33;;;;;;;3.80;2.60;;;30.20;87.20;;;;;;5014713;28;20209;-88
2022/08/15 11:25:14;;;;;;;3.60;2.50;;;30.40;86.70;;;;;;5031095;28;20186;-87
2022/08/15 11:27:40;;;;;;;3.95;2.60;;;30.40;84.30;;;;;;5014565;28;20189;-88
2022/08/15 11:30:08;;;;;;;2.83;2.42;;;30.30;85.30;;;;;;5014560;28;20179;-88
2022/08/15 11:32:37;;;;;;;2.90;2.70;;;30.30;86.90;;;;;;5013877;28;20206;-88
2022/08/15 11:35:27;;;;;;;3.42;2.20;;;30.10;85.00;;;;;;5014102;28;20198;-88
2022/08/15 11:37:57;;;;;;;4.57;2.60;;;30.20;86.10;;;;;;5014342;28;20178;-88
2022/08/15 11:40:52;;;;;;;5.68;2.50;;;30.10;85.30;;;;;;5016482;28;20192;-88
2022/08/15 11:43:19;;;;;;;2.88;2.67;;;30.00;84.50;;;;;;5034307;28;20199;-88
2022/08/15 11:45:58;;;;;;;2.58;2.30;;;30.20;84.20;;;;;;5034303;28;20182;-88
2022/08/15 11:48:33;;;;;;;3.42;2.72;;;30.40;84.50;;;;;;5017739;28;20221;-87
2022/08/15 11:51:14;;;;;;;3.58;2.30;;;30.30;82.90;;;;;;5017312;28;20174;-87
2022/08/15 11:54:03;;;;;;;4.45;2.58;;;29.90;83.00;;;;;;5034421;28;20170;-88
2022/08/15 11:56:56;;;;;;;3.25;2.58;;;29.50;84.40;;;;;;5011513;28;20213;-88
2022/08/15 11:59:34;;;;;;;4.25;2.35;;;29.60;83.70;;;;;;5017463;28;20229;-87
2022/08/15 12:02:20;;;;;;;3.85;2.50;;;29.60;84.30;;;;;;5017157;28;20214;-88
2022/08/15 12:04:49;;;;;;;2.45;2.15;;;29.60;83.60;;;;;;5033799;28;20316;-88
2022/08/15 12:07:14;;;;;;;2.83;2.40;;;29.70;84.60;;;;;;5034256;28;20179;-87
2022/08/15 12:10:14;;;;;;;2.78;2.50;;;30.00;83.60;;;;;;5033910;28;20181;-88
2022/08/15 12:12:49;;;;;;;3.08;2.53;;;30.30;83.00;;;;;;5001990;28;20215;-88
2022/08/15 12:15:22;;;;;;;3.25;2.80;;;30.50;81.80;;;;;;5033764;28;20174;-88
2022/08/15 12:18:20;;;;;;;3.13;2.47;;;30.70;80.90;;;;;;5041697;28;20178;-88
2022/08/15 12:20:55;;;;;;;3.20;2.50;;;30.70;80.30;;;;;;5033701;28;20191;-88
2022/08/15 12:23:36;;;;;;;4.22;2.28;;;30.70;81.40;;;;;;5034161;28;20216;-88
2022/08/15 12:26:08;;;;;;;2.53;2.33;;;30.40;82.20;;;;;;5034084;28;20205;-88
2022/08/15 12:28:35;;;;;;;2.70;2.38;;;30.00;83.30;;;;;;5017055;28;20175;-88
2022/08/15 12:31:25;;;;;;;2.63;2.38;;;29.80;83.30;;;;;;5017111;28;20265;-87
2022/08/15 12:34:09;;;;;;;2.70;2.50;;;29.90;84.50;;;;;;5017349;28;20175;-88
2022/08/15 12:36:37;;;;;;;3.35;2.80;;;30.10;82.90;;;;;;5017313;28;20174;-88
2022/08/15 12:39:04;;;;;;;2.55;2.25;;;30.10;81.10;;;;;;5017137;28;20240;-88
2022/08/15 12:41:30;;;;;;;3.92;2.58;;;30.00;82.10;;;;;;5016667;28;20218;-87
2022/08/15 12:43:56;;;;;;;3.53;2.53;;;29.90;81.60;;;;;;5016976;28;20170;-87
2022/08/15 12:46:22;;;;;;;4.22;2.65;;;29.60;80.90;;;;;;5016755;28;20221;-87
2022/08/15 12:48:49;;;;;;;3.90;2.47;;;29.50;81.80;;;;;;5017246;28;20289;-88
2022/08/15 12:51:16;;;;;;;2.92;2.72;;;29.60;81.90;;;;;;5032244;28;20183;-88
2022/08/15 12:53:43;;;;;;;4.10;2.58;;;29.90;82.20;;;;;;5016764;28;20182;-88
2022/08/15 12:56:09;;;;;;;3.67;2.60;;;29.90;81.80;;;;;;5033382;28;20211;-87
2022/08/15 12:58:36;;;;;;;2.58;2.38;;;29.80;82.00;;;;;;5015915;28;20179;-88
2022/08/15 13:01:08;;;;;;;3.72;2.60;;;29.90;81.60;;;;;;5016341;28;20210;-88
2022/08/15 13:03:34;;;;;;;3.03;2.70;;;29.90;82.80;;;;;;5016980;28;20174;-87
2022/08/15 13:06:36;;;;;;;4.13;2.42;;;29.70;82.60;;;;;;5016618;28;20210;-88
2022/08/15 13:09:05;;;;;;;3.22;2.90;;;29.60;84.00;;;;;;5011710;28;20190;-87
2022/08/15 13:11:31;;;;;;;3.75;2.63;;;29.50;84.10;;;;;;5016929;28;20214;-88
2022/08/15 13:13:57;;;;;;;2.75;2.55;;;29.50;83.70;;;;;;5017149;28;20166;-87
2022/08/15 13:16:23;;;;;;;4.72;2.40;;;29.60;83.90;;;;;;5016409;28;20187;-88
2022/08/15 13:18:49;;;;;;;2.95;2.72;;;29.60;82.40;;;;;;5016464;28;20635;-88
2022/08/15 13:23:59;;;;;;;2.53;2.33;;;29.50;83.10;;;;;;5032870;28;20171;-88
2022/08/15 13:26:25;;;;;;;4.75;2.50;;;29.30;83.40;;;;;;5016675;28;20241;-87
2022/08/15 13:28:56;;;;;;;4.80;2.65;;;29.20;83.80;;;;;;5017221;28;20170;-88
2022/08/15 13:31:22;;;;;;;2.85;2.60;;;29.10;84.20;;;;;;5016847;28;20183;-88
2022/08/15 13:33:48;;;;;;;3.40;2.60;;;29.10;84.00;;;;;;5033433;28;20193;-87
2022/08/15 13:36:19;;;;;;;4.18;3.10;;;29.30;83.70;;;;;;5016037;28;20193;-88
2022/08/15 13:38:47;;;;;;;4.00;2.53;;;29.60;84.20;;;;;;5016291;28;20182;-87